sensor_id;sensor_type;location;lat;lon;timestamp;P1;durP1;ratioP1;P2;durP2;ratioP2
56670;SDS011;42545;50.054;8.306;2023-03-25T00:02:18;0.40;;;0.32;;
56670;SDS011;42545;50.054;8.306;2023-03-25T00:04:48;0.40;;;0.25;;
56670;SDS011;42545;50.054;8.306;2023-03-25T00:07:16;0.30;;;0.30;;
56670;SDS011;42545;50.054;8.306;2023-03-25T00:09:44;0.30;;;0.30;;
56670;SDS011;42545;50.054;8.306;2023-03-25T00:12:10;0.25;;;0.25;;
56670;SDS011;42545;50.054;8.306;2023-03-25T00:14:39;0.88;;;0.40;;
56670;SDS011;42545;50.054;8.306;2023-03-25T00:17:06;0.40;;;0.40;;
56670;SDS011;42545;50.054;8.306;2023-03-25T00:19:34;0.20;;;0.20;;
56670;SDS011;42545;50.054;8.306;2023-03-25T00:22:01;0.30;;;0.30;;
56670;SDS011;42545;50.054;8.306;2023-03-25T00:24:28;0.30;;;0.30;;
56670;SDS011;42545;50.054;8.306;2023-03-25T00:26:55;0.17;;;0.17;;
56670;SDS011;42545;50.054;8.306;2023-03-25T00:29:21;1.05;;;0.30;;
56670;SDS011;42545;50.054;8.306;2023-03-25T00:31:49;0.43;;;0.32;;
56670;SDS011;42545;50.054;8.306;2023-03-25T00:34:16;0.52;;;0.30;;
56670;SDS011;42545;50.054;8.306;2023-03-25T00:36:44;0.20;;;0.20;;
56670;SDS011;42545;50.054;8.306;2023-03-25T00:39:10;1.33;;;0.50;;
56670;SDS011;42545;50.054;8.306;2023-03-25T00:41:37;0.43;;;0.30;;
56670;SDS011;42545;50.054;8.306;2023-03-25T00:44:06;0.75;;;0.30;;
56670;SDS011;42545;50.054;8.306;2023-03-25T00:46:33;1.98;;;0.60;;
56670;SDS011;42545;50.054;8.306;2023-03-25T00:49:01;1.05;;;0.50;;
56670;SDS011;42545;50.054;8.306;2023-03-25T00:51:29;1.00;;;0.68;;
56670;SDS011;42545;50.054;8.306;2023-03-25T00:53:58;3.53;;;0.90;;
56670;SDS011;42545;50.054;8.306;2023-03-25T00:56:25;1.25;;;0.70;;
56670;SDS011;42545;50.054;8.306;2023-03-25T00:58:52;1.95;;;0.73;;
56670;SDS011;42545;50.054;8.306;2023-03-25T01:01:20;2.17;;;0.98;;
56670;SDS011;42545;50.054;8.306;2023-03-25T01:03:51;3.17;;;1.30;;
56670;SDS011;42545;50.054;8.306;2023-03-25T01:06:25;2.90;;;0.80;;
56670;SDS011;42545;50.054;8.306;2023-03-25T01:08:54;1.85;;;1.15;;
56670;SDS011;42545;50.054;8.306;2023-03-25T01:11:23;1.65;;;0.80;;
56670;SDS011;42545;50.054;8.306;2023-03-25T01:13:52;0.88;;;0.60;;
56670;SDS011;42545;50.054;8.306;2023-03-25T01:16:19;1.92;;;0.70;;
56670;SDS011;42545;50.054;8.306;2023-03-25T01:18:46;2.70;;;0.80;;
56670;SDS011;42545;50.054;8.306;2023-03-25T01:21:13;0.88;;;0.70;;
56670;SDS011;42545;50.054;8.306;2023-03-25T01:23:41;1.77;;;0.50;;
56670;SDS011;42545;50.054;8.306;2023-03-25T01:26:08;1.92;;;0.55;;
56670;SDS011;42545;50.054;8.306;2023-03-25T01:28:36;0.60;;;0.40;;
56670;SDS011;42545;50.054;8.306;2023-03-25T01:31:04;1.25;;;0.60;;
56670;SDS011;42545;50.054;8.306;2023-03-25T01:33:33;0.65;;;0.50;;
56670;SDS011;42545;50.054;8.306;2023-03-25T01:36:00;1.55;;;0.60;;
56670;SDS011;42545;50.054;8.306;2023-03-25T01:38:27;1.52;;;0.57;;
56670;SDS011;42545;50.054;8.306;2023-03-25T01:40:56;0.68;;;0.47;;
56670;SDS011;42545;50.054;8.306;2023-03-25T01:43:23;1.27;;;0.40;;
56670;SDS011;42545;50.054;8.306;2023-03-25T01:45:50;1.17;;;0.73;;
56670;SDS011;42545;50.054;8.306;2023-03-25T01:48:17;0.90;;;0.50;;
56670;SDS011;42545;50.054;8.306;2023-03-25T01:50:50;1.13;;;0.57;;
56670;SDS011;42545;50.054;8.306;2023-03-25T01:53:20;1.27;;;0.50;;
56670;SDS011;42545;50.054;8.306;2023-03-25T01:55:47;0.57;;;0.40;;
56670;SDS011;42545;50.054;8.306;2023-03-25T01:58:18;0.65;;;0.38;;
56670;SDS011;42545;50.054;8.306;2023-03-25T02:00:46;0.35;;;0.35;;
56670;SDS011;42545;50.054;8.306;2023-03-25T02:03:16;0.40;;;0.40;;
56670;SDS011;42545;50.054;8.306;2023-03-25T02:05:47;0.57;;;0.30;;
56670;SDS011;42545;50.054;8.306;2023-03-25T02:08:20;0.70;;;0.35;;
56670;SDS011;42545;50.054;8.306;2023-03-25T02:10:49;0.93;;;0.30;;
56670;SDS011;42545;50.054;8.306;2023-03-25T02:13:18;0.70;;;0.30;;
56670;SDS011;42545;50.054;8.306;2023-03-25T02:15:50;0.47;;;0.40;;
56670;SDS011;42545;50.054;8.306;2023-03-25T02:18:31;0.80;;;0.50;;
56670;SDS011;42545;50.054;8.306;2023-03-25T02:21:10;1.13;;;0.55;;
56670;SDS011;42545;50.054;8.306;2023-03-25T02:24:08;1.95;;;0.60;;
56670;SDS011;42545;50.054;8.306;2023-03-25T02:27:02;2.83;;;0.85;;
56670;SDS011;42545;50.054;8.306;2023-03-25T02:29:48;2.85;;;0.80;;
56670;SDS011;42545;50.054;8.306;2023-03-25T02:32:35;3.30;;;1.10;;
56670;SDS011;42545;50.054;8.306;2023-03-25T02:35:22;2.15;;;0.82;;
56670;SDS011;42545;50.054;8.306;2023-03-25T02:38:10;1.38;;;0.85;;
56670;SDS011;42545;50.054;8.306;2023-03-25T02:40:46;3.65;;;0.85;;
56670;SDS011;42545;50.054;8.306;2023-03-25T02:43:20;1.00;;;0.70;;
56670;SDS011;42545;50.054;8.306;2023-03-25T02:45:52;3.75;;;0.98;;
56670;SDS011;42545;50.054;8.306;2023-03-25T02:48:24;1.00;;;0.63;;
56670;SDS011;42545;50.054;8.306;2023-03-25T02:50:57;2.92;;;1.13;;
56670;SDS011;42545;50.054;8.306;2023-03-25T02:53:31;1.58;;;0.95;;
56670;SDS011;42545;50.054;8.306;2023-03-25T02:56:02;1.80;;;0.90;;
56670;SDS011;42545;50.054;8.306;2023-03-25T02:58:32;1.05;;;0.63;;
56670;SDS011;42545;50.054;8.306;2023-03-25T03:01:00;2.58;;;0.88;;
56670;SDS011;42545;50.054;8.306;2023-03-25T03:03:27;1.55;;;0.70;;
56670;SDS011;42545;50.054;8.306;2023-03-25T03:05:55;2.53;;;0.95;;
56670;SDS011;42545;50.054;8.306;2023-03-25T03:08:26;1.52;;;0.93;;
56670;SDS011;42545;50.054;8.306;2023-03-25T03:11:04;1.63;;;0.73;;
56670;SDS011;42545;50.054;8.306;2023-03-25T03:13:41;1.58;;;0.63;;
56670;SDS011;42545;50.054;8.306;2023-03-25T03:16:17;1.83;;;0.60;;
56670;SDS011;42545;50.054;8.306;2023-03-25T03:18:56;1.38;;;0.60;;
56670;SDS011;42545;50.054;8.306;2023-03-25T03:21:30;2.35;;;0.70;;
56670;SDS011;42545;50.054;8.306;2023-03-25T03:24:04;1.40;;;0.80;;
56670;SDS011;42545;50.054;8.306;2023-03-25T03:26:40;1.17;;;0.52;;
56670;SDS011;42545;50.054;8.306;2023-03-25T03:29:12;0.88;;;0.63;;
56670;SDS011;42545;50.054;8.306;2023-03-25T03:34:10;1.88;;;0.85;;
56670;SDS011;42545;50.054;8.306;2023-03-25T03:36:43;1.83;;;0.70;;
56670;SDS011;42545;50.054;8.306;2023-03-25T03:39:16;0.75;;;0.57;;
56670;SDS011;42545;50.054;8.306;2023-03-25T03:41:49;1.92;;;0.70;;
56670;SDS011;42545;50.054;8.306;2023-03-25T03:44:19;1.00;;;0.55;;
56670;SDS011;42545;50.054;8.306;2023-03-25T03:46:52;1.48;;;0.70;;
56670;SDS011;42545;50.054;8.306;2023-03-25T03:49:23;2.17;;;0.75;;
56670;SDS011;42545;50.054;8.306;2023-03-25T03:51:55;1.35;;;0.90;;
56670;SDS011;42545;50.054;8.306;2023-03-25T03:54:28;1.33;;;0.70;;
56670;SDS011;42545;50.054;8.306;2023-03-25T03:56:59;0.77;;;0.70;;
56670;SDS011;42545;50.054;8.306;2023-03-25T03:59:34;1.55;;;0.70;;
56670;SDS011;42545;50.054;8.306;2023-03-25T04:02:08;1.30;;;0.80;;
56670;SDS011;42545;50.054;8.306;2023-03-25T04:04:39;1.27;;;0.50;;
56670;SDS011;42545;50.054;8.306;2023-03-25T04:07:07;1.02;;;0.60;;
56670;SDS011;42545;50.054;8.306;2023-03-25T04:09:44;2.17;;;0.77;;
56670;SDS011;42545;50.054;8.306;2023-03-25T04:12:21;1.30;;;0.70;;
56670;SDS011;42545;50.054;8.306;2023-03-25T04:14:51;1.95;;;0.80;;
56670;SDS011;42545;50.054;8.306;2023-03-25T04:17:18;2.45;;;0.60;;
56670;SDS011;42545;50.054;8.306;2023-03-25T04:19:45;1.42;;;0.80;;
56670;SDS011;42545;50.054;8.306;2023-03-25T04:22:13;1.75;;;0.70;;
56670;SDS011;42545;50.054;8.306;2023-03-25T04:24:44;2.58;;;0.88;;
56670;SDS011;42545;50.054;8.306;2023-03-25T04:27:13;1.30;;;0.70;;
56670;SDS011;42545;50.054;8.306;2023-03-25T04:29:40;1.45;;;1.13;;
56670;SDS011;42545;50.054;8.306;2023-03-25T04:32:08;1.65;;;0.68;;
56670;SDS011;42545;50.054;8.306;2023-03-25T04:34:36;2.85;;;0.85;;
56670;SDS011;42545;50.054;8.306;2023-03-25T04:37:03;0.98;;;0.60;;
56670;SDS011;42545;50.054;8.306;2023-03-25T04:39:30;5.22;;;0.90;;
56670;SDS011;42545;50.054;8.306;2023-03-25T04:41:58;1.67;;;0.93;;
56670;SDS011;42545;50.054;8.306;2023-03-25T04:44:25;0.60;;;0.60;;
56670;SDS011;42545;50.054;8.306;2023-03-25T04:46:52;1.50;;;0.55;;
56670;SDS011;42545;50.054;8.306;2023-03-25T04:49:21;1.63;;;0.60;;
56670;SDS011;42545;50.054;8.306;2023-03-25T04:51:49;2.33;;;0.70;;
56670;SDS011;42545;50.054;8.306;2023-03-25T04:54:17;0.55;;;0.55;;
56670;SDS011;42545;50.054;8.306;2023-03-25T04:56:44;0.93;;;0.60;;
56670;SDS011;42545;50.054;8.306;2023-03-25T04:59:15;1.90;;;0.90;;
56670;SDS011;42545;50.054;8.306;2023-03-25T05:01:42;1.65;;;0.50;;
56670;SDS011;42545;50.054;8.306;2023-03-25T05:04:10;2.25;;;0.80;;
56670;SDS011;42545;50.054;8.306;2023-03-25T05:06:38;2.25;;;0.80;;
56670;SDS011;42545;50.054;8.306;2023-03-25T05:09:08;2.92;;;0.70;;
56670;SDS011;42545;50.054;8.306;2023-03-25T05:11:38;3.60;;;0.85;;
56670;SDS011;42545;50.054;8.306;2023-03-25T05:14:06;6.07;;;0.70;;
56670;SDS011;42545;50.054;8.306;2023-03-25T05:16:34;2.60;;;0.65;;
56670;SDS011;42545;50.054;8.306;2023-03-25T05:19:00;5.15;;;0.82;;
56670;SDS011;42545;50.054;8.306;2023-03-25T05:21:27;3.33;;;0.93;;
56670;SDS011;42545;50.054;8.306;2023-03-25T05:23:55;2.30;;;0.75;;
56670;SDS011;42545;50.054;8.306;2023-03-25T05:26:22;2.28;;;0.73;;
56670;SDS011;42545;50.054;8.306;2023-03-25T05:28:48;3.70;;;0.77;;
56670;SDS011;42545;50.054;8.306;2023-03-25T05:31:16;1.85;;;0.50;;
56670;SDS011;42545;50.054;8.306;2023-03-25T05:33:44;1.58;;;0.82;;
56670;SDS011;42545;50.054;8.306;2023-03-25T05:36:11;1.50;;;0.50;;
56670;SDS011;42545;50.054;8.306;2023-03-25T05:38:40;0.73;;;0.60;;
56670;SDS011;42545;50.054;8.306;2023-03-25T05:41:07;1.85;;;0.73;;
56670;SDS011;42545;50.054;8.306;2023-03-25T05:43:36;1.05;;;0.60;;
56670;SDS011;42545;50.054;8.306;2023-03-25T05:46:02;1.80;;;0.70;;
56670;SDS011;42545;50.054;8.306;2023-03-25T05:48:30;1.35;;;0.55;;
56670;SDS011;42545;50.054;8.306;2023-03-25T05:50:59;1.48;;;0.85;;
56670;SDS011;42545;50.054;8.306;2023-03-25T05:53:28;1.55;;;0.63;;
56670;SDS011;42545;50.054;8.306;2023-03-25T05:55:58;1.30;;;0.50;;
56670;SDS011;42545;50.054;8.306;2023-03-25T05:58:25;1.95;;;0.70;;
56670;SDS011;42545;50.054;8.306;2023-03-25T06:00:51;1.23;;;0.60;;
56670;SDS011;42545;50.054;8.306;2023-03-25T06:03:18;3.15;;;0.98;;
56670;SDS011;42545;50.054;8.306;2023-03-25T06:05:46;2.58;;;0.80;;
56670;SDS011;42545;50.054;8.306;2023-03-25T06:08:14;1.73;;;1.10;;
56670;SDS011;42545;50.054;8.306;2023-03-25T06:10:41;2.80;;;0.98;;
56670;SDS011;42545;50.054;8.306;2023-03-25T06:13:09;2.55;;;0.90;;
56670;SDS011;42545;50.054;8.306;2023-03-25T06:15:36;3.30;;;1.05;;
56670;SDS011;42545;50.054;8.306;2023-03-25T06:18:04;0.90;;;0.70;;
56670;SDS011;42545;50.054;8.306;2023-03-25T06:20:31;1.33;;;0.80;;
56670;SDS011;42545;50.054;8.306;2023-03-25T06:22:58;4.70;;;0.90;;
56670;SDS011;42545;50.054;8.306;2023-03-25T06:25:26;0.70;;;0.60;;
56670;SDS011;42545;50.054;8.306;2023-03-25T06:27:55;3.03;;;0.90;;
56670;SDS011;42545;50.054;8.306;2023-03-25T06:30:25;1.38;;;0.70;;
56670;SDS011;42545;50.054;8.306;2023-03-25T06:32:52;0.70;;;0.40;;
56670;SDS011;42545;50.054;8.306;2023-03-25T06:35:19;1.40;;;0.65;;
56670;SDS011;42545;50.054;8.306;2023-03-25T06:37:47;1.95;;;0.50;;
56670;SDS011;42545;50.054;8.306;2023-03-25T06:40:14;3.83;;;0.65;;
56670;SDS011;42545;50.054;8.306;2023-03-25T06:42:43;3.78;;;0.88;;
56670;SDS011;42545;50.054;8.306;2023-03-25T06:45:10;1.77;;;0.70;;
56670;SDS011;42545;50.054;8.306;2023-03-25T06:47:37;2.25;;;0.50;;
56670;SDS011;42545;50.054;8.306;2023-03-25T06:50:07;1.63;;;0.68;;
56670;SDS011;42545;50.054;8.306;2023-03-25T06:52:34;0.93;;;0.73;;
56670;SDS011;42545;50.054;8.306;2023-03-25T06:55:01;1.88;;;1.00;;
56670;SDS011;42545;50.054;8.306;2023-03-25T06:57:28;3.05;;;0.80;;
56670;SDS011;42545;50.054;8.306;2023-03-25T06:59:56;3.08;;;1.15;;
56670;SDS011;42545;50.054;8.306;2023-03-25T07:02:23;2.97;;;0.80;;
56670;SDS011;42545;50.054;8.306;2023-03-25T07:04:50;1.13;;;0.77;;
56670;SDS011;42545;50.054;8.306;2023-03-25T07:07:16;2.83;;;0.90;;
56670;SDS011;42545;50.054;8.306;2023-03-25T07:09:43;4.53;;;1.23;;
56670;SDS011;42545;50.054;8.306;2023-03-25T07:12:10;1.73;;;0.98;;
56670;SDS011;42545;50.054;8.306;2023-03-25T07:14:38;2.72;;;1.13;;
56670;SDS011;42545;50.054;8.306;2023-03-25T07:17:06;4.03;;;0.75;;
56670;SDS011;42545;50.054;8.306;2023-03-25T07:19:33;2.97;;;0.98;;
56670;SDS011;42545;50.054;8.306;2023-03-25T07:22:00;3.45;;;0.90;;
56670;SDS011;42545;50.054;8.306;2023-03-25T07:24:27;1.98;;;0.70;;
56670;SDS011;42545;50.054;8.306;2023-03-25T07:26:54;2.75;;;0.70;;
56670;SDS011;42545;50.054;8.306;2023-03-25T07:29:20;3.78;;;1.13;;
56670;SDS011;42545;50.054;8.306;2023-03-25T07:31:47;4.57;;;1.00;;
56670;SDS011;42545;50.054;8.306;2023-03-25T07:34:15;3.28;;;1.00;;
56670;SDS011;42545;50.054;8.306;2023-03-25T07:36:42;3.78;;;0.98;;
56670;SDS011;42545;50.054;8.306;2023-03-25T07:39:08;7.45;;;1.48;;
56670;SDS011;42545;50.054;8.306;2023-03-25T07:41:35;6.72;;;1.23;;
56670;SDS011;42545;50.054;8.306;2023-03-25T07:44:02;4.40;;;1.00;;
56670;SDS011;42545;50.054;8.306;2023-03-25T07:46:28;4.38;;;1.40;;
56670;SDS011;42545;50.054;8.306;2023-03-25T07:48:55;6.60;;;1.27;;
56670;SDS011;42545;50.054;8.306;2023-03-25T07:51:23;5.65;;;1.40;;
56670;SDS011;42545;50.054;8.306;2023-03-25T07:53:49;8.57;;;1.30;;
56670;SDS011;42545;50.054;8.306;2023-03-25T07:56:16;5.72;;;1.60;;
56670;SDS011;42545;50.054;8.306;2023-03-25T07:58:43;3.83;;;0.93;;
56670;SDS011;42545;50.054;8.306;2023-03-25T08:01:10;5.63;;;1.40;;
56670;SDS011;42545;50.054;8.306;2023-03-25T08:03:37;5.63;;;1.30;;
56670;SDS011;42545;50.054;8.306;2023-03-25T08:06:04;8.98;;;1.90;;
56670;SDS011;42545;50.054;8.306;2023-03-25T08:08:33;8.00;;;2.17;;
56670;SDS011;42545;50.054;8.306;2023-03-25T08:11:00;6.32;;;1.48;;
56670;SDS011;42545;50.054;8.306;2023-03-25T08:13:27;7.72;;;1.83;;
56670;SDS011;42545;50.054;8.306;2023-03-25T08:15:56;6.43;;;1.73;;
56670;SDS011;42545;50.054;8.306;2023-03-25T08:18:23;11.02;;;2.08;;
56670;SDS011;42545;50.054;8.306;2023-03-25T08:20:50;5.15;;;1.52;;
56670;SDS011;42545;50.054;8.306;2023-03-25T08:23:17;5.63;;;1.65;;
56670;SDS011;42545;50.054;8.306;2023-03-25T08:25:48;4.85;;;1.35;;
56670;SDS011;42545;50.054;8.306;2023-03-25T08:28:16;9.95;;;1.58;;
56670;SDS011;42545;50.054;8.306;2023-03-25T08:30:47;9.38;;;1.67;;
56670;SDS011;42545;50.054;8.306;2023-03-25T08:33:18;4.85;;;1.52;;
56670;SDS011;42545;50.054;8.306;2023-03-25T08:35:46;3.92;;;1.25;;
56670;SDS011;42545;50.054;8.306;2023-03-25T08:38:15;4.57;;;1.42;;
56670;SDS011;42545;50.054;8.306;2023-03-25T08:40:42;7.00;;;1.85;;
56670;SDS011;42545;50.054;8.306;2023-03-25T08:43:10;5.78;;;1.75;;
56670;SDS011;42545;50.054;8.306;2023-03-25T08:45:37;6.38;;;1.75;;
56670;SDS011;42545;50.054;8.306;2023-03-25T08:48:05;6.85;;;1.80;;
56670;SDS011;42545;50.054;8.306;2023-03-25T08:50:32;5.00;;;1.40;;
56670;SDS011;42545;50.054;8.306;2023-03-25T08:52:59;6.88;;;1.55;;
56670;SDS011;42545;50.054;8.306;2023-03-25T08:55:25;9.75;;;2.03;;
56670;SDS011;42545;50.054;8.306;2023-03-25T08:57:52;10.20;;;1.83;;
56670;SDS011;42545;50.054;8.306;2023-03-25T09:00:20;6.78;;;1.33;;
56670;SDS011;42545;50.054;8.306;2023-03-25T09:02:49;7.30;;;1.17;;
56670;SDS011;42545;50.054;8.306;2023-03-25T09:05:17;8.07;;;1.50;;
56670;SDS011;42545;50.054;8.306;2023-03-25T09:07:44;4.65;;;1.52;;
56670;SDS011;42545;50.054;8.306;2023-03-25T09:10:11;4.20;;;1.20;;
56670;SDS011;42545;50.054;8.306;2023-03-25T09:12:38;4.80;;;1.27;;
56670;SDS011;42545;50.054;8.306;2023-03-25T09:15:06;4.57;;;1.33;;
56670;SDS011;42545;50.054;8.306;2023-03-25T09:17:35;3.50;;;1.20;;
56670;SDS011;42545;50.054;8.306;2023-03-25T09:20:02;13.52;;;1.63;;
56670;SDS011;42545;50.054;8.306;2023-03-25T09:22:31;6.63;;;1.40;;
56670;SDS011;42545;50.054;8.306;2023-03-25T09:24:58;7.60;;;1.67;;
56670;SDS011;42545;50.054;8.306;2023-03-25T09:27:24;5.60;;;1.67;;
56670;SDS011;42545;50.054;8.306;2023-03-25T09:29:52;2.80;;;1.00;;
56670;SDS011;42545;50.054;8.306;2023-03-25T09:32:18;5.90;;;1.50;;
56670;SDS011;42545;50.054;8.306;2023-03-25T09:34:46;4.28;;;1.52;;
56670;SDS011;42545;50.054;8.306;2023-03-25T09:37:13;5.53;;;0.70;;
56670;SDS011;42545;50.054;8.306;2023-03-25T09:39:39;3.92;;;0.77;;
56670;SDS011;42545;50.054;8.306;2023-03-25T09:42:09;2.42;;;0.70;;
56670;SDS011;42545;50.054;8.306;2023-03-25T09:44:51;1.63;;;0.60;;
56670;SDS011;42545;50.054;8.306;2023-03-25T09:47:22;0.30;;;0.30;;
56670;SDS011;42545;50.054;8.306;2023-03-25T09:49:53;0.88;;;0.50;;
56670;SDS011;42545;50.054;8.306;2023-03-25T09:52:23;2.92;;;0.80;;
56670;SDS011;42545;50.054;8.306;2023-03-25T09:54:54;2.65;;;0.80;;
56670;SDS011;42545;50.054;8.306;2023-03-25T09:57:26;3.55;;;0.80;;
56670;SDS011;42545;50.054;8.306;2023-03-25T09:59:56;3.22;;;1.20;;
56670;SDS011;42545;50.054;8.306;2023-03-25T10:02:26;4.00;;;1.30;;
56670;SDS011;42545;50.054;8.306;2023-03-25T10:05:08;1.02;;;0.73;;
56670;SDS011;42545;50.054;8.306;2023-03-25T10:07:43;1.80;;;0.73;;
56670;SDS011;42545;50.054;8.306;2023-03-25T10:10:25;3.20;;;1.23;;
56670;SDS011;42545;50.054;8.306;2023-03-25T10:13:01;2.58;;;1.10;;
56670;SDS011;42545;50.054;8.306;2023-03-25T10:15:37;2.00;;;0.73;;
56670;SDS011;42545;50.054;8.306;2023-03-25T10:18:16;2.80;;;0.95;;
56670;SDS011;42545;50.054;8.306;2023-03-25T10:21:00;4.03;;;0.70;;
56670;SDS011;42545;50.054;8.306;2023-03-25T10:23:33;2.25;;;1.15;;
56670;SDS011;42545;50.054;8.306;2023-03-25T10:26:03;4.13;;;1.00;;
56670;SDS011;42545;50.054;8.306;2023-03-25T10:28:36;4.45;;;0.80;;
56670;SDS011;42545;50.054;8.306;2023-03-25T10:31:08;2.03;;;0.65;;
56670;SDS011;42545;50.054;8.306;2023-03-25T10:33:40;3.75;;;0.82;;
56670;SDS011;42545;50.054;8.306;2023-03-25T10:36:17;4.47;;;1.00;;
56670;SDS011;42545;50.054;8.306;2023-03-25T10:38:47;3.83;;;1.10;;
56670;SDS011;42545;50.054;8.306;2023-03-25T10:41:22;4.57;;;0.90;;
56670;SDS011;42545;50.054;8.306;2023-03-25T10:43:51;1.70;;;0.82;;
56670;SDS011;42545;50.054;8.306;2023-03-25T10:46:23;3.03;;;0.95;;
56670;SDS011;42545;50.054;8.306;2023-03-25T10:48:53;3.47;;;0.80;;
56670;SDS011;42545;50.054;8.306;2023-03-25T10:51:22;2.10;;;1.00;;
56670;SDS011;42545;50.054;8.306;2023-03-25T10:53:53;3.35;;;1.05;;
56670;SDS011;42545;50.054;8.306;2023-03-25T10:56:21;4.13;;;1.02;;
56670;SDS011;42545;50.054;8.306;2023-03-25T10:58:50;1.83;;;0.63;;
56670;SDS011;42545;50.054;8.306;2023-03-25T11:01:21;5.15;;;0.93;;
56670;SDS011;42545;50.054;8.306;2023-03-25T11:03:57;2.10;;;1.02;;
56670;SDS011;42545;50.054;8.306;2023-03-25T11:06:29;3.13;;;0.85;;
56670;SDS011;42545;50.054;8.306;2023-03-25T11:09:14;4.00;;;0.90;;
56670;SDS011;42545;50.054;8.306;2023-03-25T11:11:44;3.85;;;0.95;;
56670;SDS011;42545;50.054;8.306;2023-03-25T11:14:12;3.25;;;1.00;;
56670;SDS011;42545;50.054;8.306;2023-03-25T11:16:40;4.68;;;0.85;;
56670;SDS011;42545;50.054;8.306;2023-03-25T11:19:13;6.22;;;1.30;;
56670;SDS011;42545;50.054;8.306;2023-03-25T11:21:47;5.68;;;1.30;;
56670;SDS011;42545;50.054;8.306;2023-03-25T11:24:18;5.38;;;1.33;;
56670;SDS011;42545;50.054;8.306;2023-03-25T11:26:48;3.40;;;1.30;;
56670;SDS011;42545;50.054;8.306;2023-03-25T11:29:17;4.78;;;1.17;;
56670;SDS011;42545;50.054;8.306;2023-03-25T11:31:54;4.63;;;1.17;;
56670;SDS011;42545;50.054;8.306;2023-03-25T11:34:22;7.47;;;1.20;;
56670;SDS011;42545;50.054;8.306;2023-03-25T11:36:52;3.90;;;1.10;;
56670;SDS011;42545;50.054;8.306;2023-03-25T11:39:26;3.40;;;0.98;;
56670;SDS011;42545;50.054;8.306;2023-03-25T11:41:58;3.55;;;0.85;;
56670;SDS011;42545;50.054;8.306;2023-03-25T11:44:27;5.22;;;1.00;;
56670;SDS011;42545;50.054;8.306;2023-03-25T11:46:56;4.93;;;1.15;;
56670;SDS011;42545;50.054;8.306;2023-03-25T11:49:25;3.10;;;0.98;;
56670;SDS011;42545;50.054;8.306;2023-03-25T11:52:01;3.53;;;1.20;;
56670;SDS011;42545;50.054;8.306;2023-03-25T11:54:30;3.15;;;0.80;;
56670;SDS011;42545;50.054;8.306;2023-03-25T11:57:01;2.50;;;0.93;;
56670;SDS011;42545;50.054;8.306;2023-03-25T11:59:34;5.53;;;1.25;;
56670;SDS011;42545;50.054;8.306;2023-03-25T12:02:08;5.82;;;0.90;;
56670;SDS011;42545;50.054;8.306;2023-03-25T12:04:53;3.67;;;1.08;;
56670;SDS011;42545;50.054;8.306;2023-03-25T12:07:31;3.88;;;1.23;;
56670;SDS011;42545;50.054;8.306;2023-03-25T12:10:11;2.92;;;1.00;;
56670;SDS011;42545;50.054;8.306;2023-03-25T12:12:43;4.78;;;1.30;;
56670;SDS011;42545;50.054;8.306;2023-03-25T12:15:25;4.18;;;1.13;;
56670;SDS011;42545;50.054;8.306;2023-03-25T12:18:02;4.03;;;1.10;;
56670;SDS011;42545;50.054;8.306;2023-03-25T12:20:46;4.95;;;1.10;;
56670;SDS011;42545;50.054;8.306;2023-03-25T12:23:26;3.38;;;0.75;;
56670;SDS011;42545;50.054;8.306;2023-03-25T12:26:05;3.00;;;0.80;;
56670;SDS011;42545;50.054;8.306;2023-03-25T12:28:39;3.63;;;0.98;;
56670;SDS011;42545;50.054;8.306;2023-03-25T12:31:22;3.95;;;0.93;;
56670;SDS011;42545;50.054;8.306;2023-03-25T12:34:03;2.75;;;1.00;;
56670;SDS011;42545;50.054;8.306;2023-03-25T12:36:42;4.07;;;0.93;;
56670;SDS011;42545;50.054;8.306;2023-03-25T12:39:25;2.70;;;0.75;;
56670;SDS011;42545;50.054;8.306;2023-03-25T12:42:07;4.18;;;0.90;;
56670;SDS011;42545;50.054;8.306;2023-03-25T12:44:46;2.75;;;0.90;;
56670;SDS011;42545;50.054;8.306;2023-03-25T12:47:23;5.03;;;1.13;;
56670;SDS011;42545;50.054;8.306;2023-03-25T12:50:13;3.05;;;0.70;;
56670;SDS011;42545;50.054;8.306;2023-03-25T12:52:53;2.53;;;0.85;;
56670;SDS011;42545;50.054;8.306;2023-03-25T12:55:33;2.30;;;0.82;;
56670;SDS011;42545;50.054;8.306;2023-03-25T12:58:15;5.30;;;0.93;;
56670;SDS011;42545;50.054;8.306;2023-03-25T13:00:58;3.25;;;0.93;;
56670;SDS011;42545;50.054;8.306;2023-03-25T13:03:36;3.85;;;0.90;;
56670;SDS011;42545;50.054;8.306;2023-03-25T13:06:19;4.40;;;1.00;;
56670;SDS011;42545;50.054;8.306;2023-03-25T13:08:55;6.57;;;0.70;;
56670;SDS011;42545;50.054;8.306;2023-03-25T13:11:30;4.78;;;0.95;;
56670;SDS011;42545;50.054;8.306;2023-03-25T13:14:04;3.53;;;1.00;;
56670;SDS011;42545;50.054;8.306;2023-03-25T13:16:36;4.07;;;1.00;;
56670;SDS011;42545;50.054;8.306;2023-03-25T13:19:06;3.67;;;1.00;;
56670;SDS011;42545;50.054;8.306;2023-03-25T13:21:38;3.28;;;0.90;;
56670;SDS011;42545;50.054;8.306;2023-03-25T13:24:09;3.30;;;0.93;;
56670;SDS011;42545;50.054;8.306;2023-03-25T13:26:43;5.22;;;1.17;;
56670;SDS011;42545;50.054;8.306;2023-03-25T13:29:12;3.10;;;0.80;;
56670;SDS011;42545;50.054;8.306;2023-03-25T13:31:48;4.63;;;1.02;;
56670;SDS011;42545;50.054;8.306;2023-03-25T13:34:18;3.30;;;1.00;;
56670;SDS011;42545;50.054;8.306;2023-03-25T13:36:50;2.25;;;0.90;;
56670;SDS011;42545;50.054;8.306;2023-03-25T13:39:45;3.38;;;0.82;;
56670;SDS011;42545;50.054;8.306;2023-03-25T13:42:18;3.55;;;1.40;;
56670;SDS011;42545;50.054;8.306;2023-03-25T13:44:50;5.05;;;1.10;;
56670;SDS011;42545;50.054;8.306;2023-03-25T13:47:23;2.70;;;0.70;;
56670;SDS011;42545;50.054;8.306;2023-03-25T13:49:56;6.75;;;1.27;;
56670;SDS011;42545;50.054;8.306;2023-03-25T13:52:30;2.00;;;0.70;;
56670;SDS011;42545;50.054;8.306;2023-03-25T13:55:03;2.28;;;0.80;;
56670;SDS011;42545;50.054;8.306;2023-03-25T13:57:58;2.72;;;0.90;;
56670;SDS011;42545;50.054;8.306;2023-03-25T14:00:52;2.03;;;0.90;;
56670;SDS011;42545;50.054;8.306;2023-03-25T14:03:59;3.45;;;1.10;;
56670;SDS011;42545;50.054;8.306;2023-03-25T14:06:59;3.37;;;1.07;;
56670;SDS011;42545;50.054;8.306;2023-03-25T14:12:51;1.17;;;0.75;;
56670;SDS011;42545;50.054;8.306;2023-03-25T14:15:21;3.55;;;1.10;;
56670;SDS011;42545;50.054;8.306;2023-03-25T14:17:52;2.80;;;1.17;;
56670;SDS011;42545;50.054;8.306;2023-03-25T14:20:21;4.13;;;1.00;;
56670;SDS011;42545;50.054;8.306;2023-03-25T14:22:54;4.63;;;1.23;;
56670;SDS011;42545;50.054;8.306;2023-03-25T14:25:26;2.63;;;0.85;;
56670;SDS011;42545;50.054;8.306;2023-03-25T14:27:59;3.95;;;1.00;;
56670;SDS011;42545;50.054;8.306;2023-03-25T14:32:56;2.58;;;0.90;;
56670;SDS011;42545;50.054;8.306;2023-03-25T14:41:13;2.78;;;1.27;;
56670;SDS011;42545;50.054;8.306;2023-03-25T14:43:43;3.05;;;0.90;;
56670;SDS011;42545;50.054;8.306;2023-03-25T14:46:26;3.25;;;0.95;;
56670;SDS011;42545;50.054;8.306;2023-03-25T14:49:08;2.03;;;0.80;;
56670;SDS011;42545;50.054;8.306;2023-03-25T14:51:45;5.95;;;1.00;;
56670;SDS011;42545;50.054;8.306;2023-03-25T14:54:17;3.90;;;1.20;;
56670;SDS011;42545;50.054;8.306;2023-03-25T14:56:51;5.65;;;1.10;;
56670;SDS011;42545;50.054;8.306;2023-03-25T14:59:24;2.92;;;1.33;;
56670;SDS011;42545;50.054;8.306;2023-03-25T15:01:58;3.10;;;1.13;;
56670;SDS011;42545;50.054;8.306;2023-03-25T15:04:28;2.85;;;1.00;;
56670;SDS011;42545;50.054;8.306;2023-03-25T15:06:58;4.95;;;1.00;;
56670;SDS011;42545;50.054;8.306;2023-03-25T15:09:26;3.92;;;1.13;;
56670;SDS011;42545;50.054;8.306;2023-03-25T15:11:55;3.15;;;1.05;;
56670;SDS011;42545;50.054;8.306;2023-03-25T15:14:26;5.15;;;1.10;;
56670;SDS011;42545;50.054;8.306;2023-03-25T15:17:00;1.55;;;0.68;;
56670;SDS011;42545;50.054;8.306;2023-03-25T15:22:33;2.72;;;0.95;;
56670;SDS011;42545;50.054;8.306;2023-03-25T15:25:00;2.85;;;1.00;;
56670;SDS011;42545;50.054;8.306;2023-03-25T15:27:45;2.70;;;1.25;;
56670;SDS011;42545;50.054;8.306;2023-03-25T15:30:35;3.95;;;0.95;;